Time;durP1;ratioP1;P1;durP2;ratioP2;P2;SDS_P1;SDS_P2;PMS_P1;PMS_P2;Temp;Humidity;BMP_temperature;BMP_pressure;BME280_temperature;BME280_humidity;BME280_pressure;Samples;Min_cycle;Max_cycle;Signal;HPM_P1;HPM_P2
2022/01/31 00:01:15;;;;;;;24.80;5.93;;;-8.50;99.90;;;;;;2221132;64;20181;-51
2022/01/31 00:03:41;;;;;;;21.50;5.93;;;-8.50;99.90;;;;;;2221087;64;20088;-54
2022/01/31 00:06:08;;;;;;;23.20;5.07;;;-8.50;99.90;;;;;;2221035;64;20076;-54
2022/01/31 00:08:34;;;;;;;22.17;7.53;;;-8.40;99.90;;;;;;2221290;64;20238;-54
2022/01/31 00:11:00;;;;;;;20.63;5.27;;;-8.30;99.90;;;;;;2224906;64;20100;-52
2022/01/31 00:13:40;;;;;;;21.73;6.67;;;-8.30;99.90;;;;;;2224937;64;20096;-50
2022/01/31 00:16:09;;;;;;;21.97;6.70;;;-8.10;99.90;;;;;;2224870;64;20088;-51
2022/01/31 00:18:35;;;;;;;29.13;8.57;;;-7.90;99.90;;;;;;2224934;64;20573;-55
2022/01/31 00:21:02;;;;;;;35.03;9.57;;;-7.60;99.90;;;;;;2220893;64;20201;-51
2022/01/31 00:23:28;;;;;;;37.27;11.07;;;-7.30;99.90;;;;;;2221090;64;20088;-46
2022/01/31 00:25:54;;;;;;;27.47;9.63;;;-7.20;99.90;;;;;;2224927;64;20092;-48
2022/01/31 00:28:21;;;;;;;39.37;11.00;;;-7.20;99.90;;;;;;2220894;64;20092;-49
2022/01/31 00:30:47;;;;;;;37.03;10.50;;;-7.10;99.90;;;;;;2225003;64;20099;-51
2022/01/31 00:33:14;;;;;;;34.03;10.13;;;-7.10;99.90;;;;;;2224851;64;20134;-51
2022/01/31 00:35:40;;;;;;;40.67;10.03;;;-7.10;99.90;;;;;;2224785;64;20096;-48
2022/01/31 00:38:07;;;;;;;56.27;13.07;;;-7.10;99.90;;;;;;2224085;64;20092;-49
2022/01/31 00:40:35;;;;;;;54.20;12.90;;;-7.10;99.90;;;;;;2224897;64;20080;-49
2022/01/31 00:43:01;;;;;;;55.47;14.00;;;-7.00;99.90;;;;;;2224775;64;20091;-51
2022/01/31 00:45:30;;;;;;;49.70;13.53;;;-7.10;99.90;;;;;;2224858;64;20084;-51
2022/01/31 00:48:01;;;;;;;42.87;11.83;;;-7.00;99.90;;;;;;2224839;64;20108;-51
2022/01/31 00:50:38;;;;;;;61.50;12.17;;;-7.10;99.90;;;;;;2224903;64;20084;-49
2022/01/31 00:53:04;;;;;;;51.57;11.50;;;-7.10;99.90;;;;;;2224740;64;20185;-51
2022/01/31 00:55:31;;;;;;;51.27;12.50;;;-7.10;99.90;;;;;;2224632;64;20180;-48
2022/01/31 00:57:57;;;;;;;62.60;13.40;;;-7.10;99.90;;;;;;2224794;64;20119;-50
2022/01/31 01:00:23;;;;;;;52.17;12.57;;;-7.10;99.90;;;;;;2224850;64;20088;-48
2022/01/31 01:02:50;;;;;;;47.97;13.83;;;-7.10;99.90;;;;;;2224680;64;20479;-54
2022/01/31 01:05:16;;;;;;;45.87;11.57;;;-7.10;99.90;;;;;;2224843;64;20096;-48
2022/01/31 01:07:46;;;;;;;46.10;10.50;;;-7.00;99.90;;;;;;2224696;64;20543;-50
2022/01/31 01:10:16;;;;;;;50.63;10.37;;;-7.00;99.90;;;;;;2221657;64;20093;-49
2022/01/31 01:12:43;;;;;;;51.27;12.40;;;-6.90;99.90;;;;;;2220770;64;20575;-55
2022/01/31 01:15:10;;;;;;;36.63;9.97;;;-6.90;99.90;;;;;;2220838;64;20476;-48
2022/01/31 01:17:37;;;;;;;36.00;9.60;;;-6.80;99.90;;;;;;2216852;64;20567;-50
2022/01/31 01:20:07;;;;;;;36.63;10.03;;;-6.60;99.90;;;;;;2220904;64;20560;-50
2022/01/31 01:22:33;;;;;;;38.83;9.87;;;-6.60;99.90;;;;;;2220684;64;20081;-49
2022/01/31 01:25:03;;;;;;;37.83;9.90;;;-6.60;99.90;;;;;;2220867;64;20096;-51
2022/01/31 01:27:30;;;;;;;25.93;7.87;;;-6.60;99.90;;;;;;2220838;64;20183;-49
2022/01/31 01:29:57;;;;;;;29.53;9.20;;;-6.30;99.90;;;;;;2217111;64;20096;-51
2022/01/31 01:32:26;;;;;;;31.60;8.27;;;-6.10;99.90;;;;;;2220822;64;20088;-50
2022/01/31 01:34:53;;;;;;;26.83;9.10;;;-6.00;99.90;;;;;;2216964;64;20211;-48
2022/01/31 01:37:20;;;;;;;39.07;10.43;;;-5.90;99.90;;;;;;2220805;64;20096;-47
2022/01/31 01:39:46;;;;;;;33.30;10.00;;;-5.90;99.90;;;;;;2220818;64;20089;-49
2022/01/31 01:42:13;;;;;;;38.03;9.80;;;-6.00;99.90;;;;;;2220676;64;20084;-50
2022/01/31 01:44:47;;;;;;;41.93;10.77;;;-5.90;99.90;;;;;;2220692;64;20185;-52
2022/01/31 01:47:17;;;;;;;32.95;11.38;;;-5.90;99.90;;;;;;2216800;64;20084;-51
2022/01/31 01:49:44;;;;;;;43.00;12.30;;;-5.80;99.90;;;;;;2216969;64;20089;-48
2022/01/31 01:52:11;;;;;;;24.97;8.73;;;-5.80;99.90;;;;;;2216921;64;20089;-46
2022/01/31 01:54:38;;;;;;;38.00;11.07;;;-5.80;99.90;;;;;;2220733;64;20089;-46
2022/01/31 01:57:05;;;;;;;38.17;10.77;;;-5.70;99.90;;;;;;2220495;64;20215;-51
2022/01/31 01:59:34;;;;;;;29.37;11.33;;;-5.60;99.90;;;;;;2220732;64;20544;-50
2022/01/31 02:02:02;;;;;;;32.23;9.67;;;-5.60;99.90;;;;;;2220645;64;20084;-48
2022/01/31 02:04:28;;;;;;;31.43;10.37;;;-5.60;99.90;;;;;;2220650;64;20563;-52
2022/01/31 02:06:55;;;;;;;27.60;9.37;;;-5.60;99.90;;;;;;2220715;64;20081;-50
2022/01/31 02:09:22;;;;;;;34.50;8.67;;;-5.70;99.90;;;;;;2218647;64;20100;-49
2022/01/31 02:11:49;;;;;;;34.27;10.17;;;-5.70;99.90;;;;;;2224603;64;20088;-48
2022/01/31 02:14:17;;;;;;;34.40;10.80;;;-5.80;99.90;;;;;;2224695;64;20135;-47
2022/01/31 02:16:43;;;;;;;38.97;11.13;;;-5.70;99.90;;;;;;2224548;64;20099;-49
2022/01/31 02:19:15;;;;;;;43.67;14.83;;;-5.60;99.90;;;;;;2224635;64;20083;-48
2022/01/31 02:21:42;;;;;;;47.17;14.43;;;-5.60;99.90;;;;;;2224555;64;20100;-47
2022/01/31 02:24:09;;;;;;;47.10;13.63;;;-5.50;99.90;;;;;;2224594;64;20180;-48
2022/01/31 02:26:36;;;;;;;35.53;11.67;;;-5.50;99.90;;;;;;2224491;64;20084;-45
2022/01/31 02:29:02;;;;;;;41.13;11.90;;;-5.50;99.90;;;;;;2224669;64;20173;-50
2022/01/31 02:31:29;;;;;;;40.90;12.13;;;-5.40;99.90;;;;;;2224443;64;20483;-50
2022/01/31 02:33:55;;;;;;;33.03;10.10;;;-5.40;99.90;;;;;;2224510;64;20693;-50
2022/01/31 02:36:22;;;;;;;27.50;9.50;;;-5.40;99.90;;;;;;2224441;64;20106;-50
2022/01/31 02:38:48;;;;;;;35.70;10.00;;;-5.40;99.90;;;;;;2225091;64;20096;-51
2022/01/31 02:41:15;;;;;;;30.17;11.33;;;-5.40;99.90;;;;;;2225196;64;20119;-47
2022/01/31 02:43:47;;;;;;;29.43;9.77;;;-5.40;99.90;;;;;;2225114;64;20160;-48
2022/01/31 02:46:14;;;;;;;32.80;11.50;;;-5.40;99.90;;;;;;2225107;64;20544;-51
2022/01/31 02:48:40;;;;;;;35.80;11.67;;;-5.40;99.90;;;;;;2225094;64;20471;-49
2022/01/31 02:51:10;;;;;;;29.27;9.77;;;-5.40;99.90;;;;;;2225048;64;20115;-45
2022/01/31 02:53:41;;;;;;;39.10;11.17;;;-5.40;99.90;;;;;;2225193;64;20577;-51
2022/01/31 02:56:07;;;;;;;34.73;10.43;;;-5.40;99.90;;;;;;2224939;64;20112;-48
2022/01/31 02:58:34;;;;;;;27.93;9.20;;;-5.40;99.90;;;;;;2225260;64;20552;-51
2022/01/31 03:01:00;;;;;;;38.30;12.00;;;-5.40;99.90;;;;;;2224994;64;20076;-49
2022/01/31 03:03:27;;;;;;;32.73;9.70;;;-5.40;99.90;;;;;;2225097;64;20549;-50
2022/01/31 03:05:53;;;;;;;25.83;9.37;;;-5.40;99.90;;;;;;2224999;64;20088;-51
2022/01/31 03:08:20;;;;;;;28.53;9.00;;;-5.50;99.90;;;;;;2221213;64;20106;-49
2022/01/31 03:10:46;;;;;;;31.87;9.60;;;-5.50;99.90;;;;;;2221114;64;20104;-48
2022/01/31 03:13:12;;;;;;;31.43;11.70;;;-5.50;99.90;;;;;;2221200;64;20088;-47
2022/01/31 03:15:39;;;;;;;38.10;11.97;;;-5.60;99.90;;;;;;2220968;64;20530;-48
2022/01/31 03:18:06;;;;;;;32.40;11.73;;;-5.60;99.90;;;;;;2217530;64;20111;-48
2022/01/31 03:20:33;;;;;;;38.47;11.90;;;-5.60;99.90;;;;;;2221210;64;20147;-48
2022/01/31 03:23:00;;;;;;;39.47;13.57;;;-5.60;99.90;;;;;;2221168;64;20092;-47
2022/01/31 03:25:26;;;;;;;37.77;13.40;;;-5.60;99.90;;;;;;2217332;64;20480;-50
2022/01/31 03:27:52;;;;;;;28.80;10.17;;;-5.60;99.90;;;;;;2221178;64;20142;-47
2022/01/31 03:30:21;;;;;;;30.90;11.37;;;-5.50;99.90;;;;;;2217283;64;20085;-47
2022/01/31 03:32:48;;;;;;;33.10;10.50;;;-5.50;99.90;;;;;;2221066;64;20131;-47
2022/01/31 03:35:15;;;;;;;33.57;10.87;;;-5.40;99.90;;;;;;2217010;64;20566;-48
2022/01/31 03:37:41;;;;;;;33.90;11.33;;;-5.40;99.90;;;;;;2217326;64;20088;-46
2022/01/31 03:40:08;;;;;;;32.73;11.67;;;-5.30;99.90;;;;;;2221166;64;20103;-48
2022/01/31 03:42:36;;;;;;;40.90;13.53;;;-5.20;99.90;;;;;;2217337;64;20077;-46
2022/01/31 03:45:04;;;;;;;13.73;4.57;;;-5.10;99.90;;;;;;2221095;64;20093;-50
2022/01/31 03:47:30;;;;;;;32.07;12.13;;;-5.10;99.90;;;;;;2221240;64;20206;-48
2022/01/31 03:49:57;;;;;;;35.67;10.73;;;-5.10;99.90;;;;;;2221050;64;20099;-46
2022/01/31 03:52:23;;;;;;;37.70;12.97;;;-5.20;99.90;;;;;;2221275;64;20156;-49
2022/01/31 03:54:50;;;;;;;33.20;10.57;;;-5.10;99.90;;;;;;2220936;64;20178;-49
2022/01/31 03:57:16;;;;;;;34.30;11.90;;;-5.20;99.90;;;;;;2220923;64;20092;-50
2022/01/31 03:59:43;;;;;;;38.23;11.40;;;-5.20;99.90;;;;;;2220989;64;20099;-49
2022/01/31 04:02:09;;;;;;;41.50;13.80;;;-5.30;99.90;;;;;;2221105;64;20103;-49
2022/01/31 04:04:36;;;;;;;42.30;13.47;;;-5.30;99.90;;;;;;2220988;64;20088;-48
2022/01/31 04:07:02;;;;;;;45.00;12.87;;;-5.40;99.90;;;;;;2221211;64;20107;-48
2022/01/31 04:09:29;;;;;;;38.00;12.03;;;-5.50;99.90;;;;;;2222920;64;20076;-47
2022/01/31 04:11:55;;;;;;;29.37;9.07;;;-5.50;99.90;;;;;;2224843;64;20103;-47
2022/01/31 04:14:25;;;;;;;37.27;12.83;;;-5.60;99.90;;;;;;2224763;64;20173;-46
2022/01/31 04:16:54;;;;;;;32.47;11.03;;;-5.60;99.90;;;;;;2224938;64;20077;-48
2022/01/31 04:19:21;;;;;;;36.53;8.43;;;-5.70;99.90;;;;;;2224976;64;20084;-46
2022/01/31 04:21:47;;;;;;;41.40;12.60;;;-5.70;99.90;;;;;;2221020;64;20115;-46
2022/01/31 04:24:19;;;;;;;29.27;9.10;;;-5.70;99.90;;;;;;2224080;64;20114;-49
2022/01/31 04:26:56;;;;;;;26.47;9.87;;;-5.70;99.90;;;;;;2224895;64;20089;-49
2022/01/31 04:29:22;;;;;;;30.47;9.93;;;-5.70;99.90;;;;;;2224716;64;20092;-46
2022/01/31 04:31:51;;;;;;;32.00;10.27;;;-5.50;99.90;;;;;;2220966;64;20169;-48
2022/01/31 04:34:18;;;;;;;32.77;10.13;;;-5.30;99.90;;;;;;2224174;64;20115;-50
2022/01/31 04:36:45;;;;;;;36.40;14.20;;;-5.20;99.90;;;;;;2224294;64;20107;-48
2022/01/31 04:39:16;;;;;;;35.53;10.57;;;-5.20;99.90;;;;;;2224879;64;20106;-47
2022/01/31 04:41:44;;;;;;;30.60;11.00;;;-5.10;99.90;;;;;;2224742;64;20096;-49
2022/01/31 04:44:11;;;;;;;38.43;12.17;;;-5.00;99.90;;;;;;2224883;64;20574;-48
2022/01/31 04:46:39;;;;;;;32.30;11.40;;;-5.00;99.90;;;;;;2224674;64;20100;-50
2022/01/31 04:49:09;;;;;;;30.13;8.10;;;-5.00;99.90;;;;;;2224655;64;20088;-49
2022/01/31 04:51:35;;;;;;;32.30;11.13;;;-5.00;99.90;;;;;;2224706;64;20104;-48
2022/01/31 04:54:02;;;;;;;32.93;9.77;;;-5.00;99.90;;;;;;2224629;64;20092;-52
2022/01/31 04:56:28;;;;;;;34.20;10.60;;;-4.90;99.90;;;;;;2224577;64;20452;-48
2022/01/31 04:58:55;;;;;;;53.83;15.87;;;-4.90;99.90;;;;;;2224507;64;20096;-50
2022/01/31 05:01:23;;;;;;;35.93;12.53;;;-4.80;99.90;;;;;;2224548;64;20107;-47
2022/01/31 05:03:50;;;;;;;27.53;8.47;;;-4.70;99.90;;;;;;2224688;64;20622;-49
2022/01/31 05:06:20;;;;;;;35.53;11.67;;;-4.70;99.90;;;;;;2224785;64;20096;-51
2022/01/31 05:08:46;;;;;;;22.70;7.77;;;-4.70;99.90;;;;;;2223770;64;20101;-51
2022/01/31 05:11:13;;;;;;;19.30;6.53;;;-4.60;99.90;;;;;;2220885;64;20084;-49
2022/01/31 05:13:39;;;;;;;35.53;11.30;;;-4.50;99.90;;;;;;2220884;64;20085;-52
2022/01/31 05:16:06;;;;;;;19.03;6.20;;;-4.50;99.90;;;;;;2220830;64;20571;-49
2022/01/31 05:18:33;;;;;;;18.17;5.67;;;-4.40;99.90;;;;;;2220755;64;20092;-49
2022/01/31 05:20:59;;;;;;;11.27;5.00;;;-4.40;99.90;;;;;;2220939;64;20161;-48
2022/01/31 05:23:26;;;;;;;18.70;6.10;;;-4.20;99.90;;;;;;2220786;64;20173;-46
2022/01/31 05:25:53;;;;;;;17.43;6.73;;;-4.10;99.90;;;;;;2220991;64;20196;-49
2022/01/31 05:28:19;;;;;;;24.87;9.23;;;-3.90;99.90;;;;;;2216687;64;20085;-47
2022/01/31 05:30:45;;;;;;;17.30;6.83;;;-3.80;99.90;;;;;;2220980;64;20105;-48
2022/01/31 05:33:12;;;;;;;27.67;9.83;;;-3.70;99.90;;;;;;2220778;64;20100;-46
2022/01/31 05:35:38;;;;;;;20.53;7.23;;;-3.70;99.90;;;;;;2220583;64;20150;-46
2022/01/31 05:38:05;;;;;;;28.57;9.77;;;-3.60;99.90;;;;;;2220649;64;20089;-46
2022/01/31 05:40:31;;;;;;;22.47;6.50;;;-3.50;99.90;;;;;;2220700;64;20177;-48
2022/01/31 05:42:58;;;;;;;23.47;7.67;;;-3.40;99.90;;;;;;2216861;64;20131;-45
2022/01/31 05:45:24;;;;;;;25.47;9.77;;;-3.30;99.90;;;;;;2220632;64;20472;-48
2022/01/31 05:47:51;;;;;;;17.50;6.10;;;-3.30;99.90;;;;;;2220566;64;20181;-47
2022/01/31 05:50:18;;;;;;;9.97;3.47;;;-3.20;99.90;;;;;;2220824;64;20102;-46
2022/01/31 05:52:45;;;;;;;21.70;6.63;;;-3.10;99.90;;;;;;2220711;64;20146;-45
2022/01/31 05:55:13;;;;;;;15.83;5.57;;;-3.10;99.90;;;;;;2220354;64;20108;-46
2022/01/31 05:57:39;;;;;;;24.20;6.77;;;-3.00;99.90;;;;;;2220706;64;20097;-46
2022/01/31 06:00:07;;;;;;;18.07;7.83;;;-3.00;99.90;;;;;;2220627;64;20088;-46
2022/01/31 06:02:35;;;;;;;9.97;3.53;;;-3.00;99.90;;;;;;2216889;64;20103;-45
2022/01/31 06:05:05;;;;;;;25.77;8.90;;;-3.00;99.90;;;;;;2216801;64;20174;-47
2022/01/31 06:07:32;;;;;;;24.77;7.50;;;-2.90;99.90;;;;;;2220810;64;20093;-44
2022/01/31 06:09:59;;;;;;;28.67;9.87;;;-2.80;99.90;;;;;;2223294;64;20110;-46
2022/01/31 06:12:26;;;;;;;21.77;6.73;;;-2.80;99.90;;;;;;2224412;64;20126;-46
2022/01/31 06:14:52;;;;;;;14.20;4.77;;;-2.80;99.90;;;;;;2224395;64;20176;-42
2022/01/31 06:17:19;;;;;;;22.13;8.37;;;-2.70;99.90;;;;;;2220482;64;20205;-44
2022/01/31 06:19:45;;;;;;;23.70;8.80;;;-2.70;99.90;;;;;;2224566;64;20084;-45
2022/01/31 06:22:11;;;;;;;15.60;5.93;;;-2.60;99.90;;;;;;2224610;64;20577;-44
2022/01/31 06:24:40;;;;;;;23.20;7.37;;;-2.60;99.90;;;;;;2224474;64;20100;-53
2022/01/31 06:27:06;;;;;;;21.57;8.27;;;-2.60;99.90;;;;;;2224580;64;20603;-44
2022/01/31 06:29:33;;;;;;;19.97;8.93;;;-2.50;99.90;;;;;;2224445;64;20088;-44
2022/01/31 06:31:59;;;;;;;12.70;4.40;;;-2.50;99.90;;;;;;2224471;64;20100;-52
2022/01/31 06:34:25;;;;;;;18.43;5.57;;;-2.50;99.90;;;;;;2224283;64;20203;-44
2022/01/31 06:36:52;;;;;;;17.13;5.43;;;-2.50;99.90;;;;;;2224460;64;20455;-44
2022/01/31 06:39:18;;;;;;;14.17;5.97;;;-2.40;99.90;;;;;;2224430;64;20088;-44
2022/01/31 06:41:45;;;;;;;12.03;5.27;;;-2.30;99.90;;;;;;2224576;64;20610;-44
2022/01/31 06:44:11;;;;;;;13.17;4.90;;;-2.30;99.90;;;;;;2224188;64;20201;-44
2022/01/31 06:46:38;;;;;;;11.00;5.17;;;-2.20;99.90;;;;;;2224311;64;20104;-44
2022/01/31 06:49:04;;;;;;;26.40;9.67;;;-2.20;99.90;;;;;;2224351;64;20088;-45
2022/01/31 06:51:31;;;;;;;19.47;6.17;;;-2.10;99.90;;;;;;2224514;64;20104;-45
2022/01/31 06:53:59;;;;;;;10.03;4.40;;;-2.10;99.90;;;;;;2224207;64;20092;-44
2022/01/31 06:56:30;;;;;;;24.70;7.77;;;-2.00;99.90;;;;;;2220472;64;20110;-44
2022/01/31 06:58:57;;;;;;;26.17;7.53;;;-2.00;99.90;;;;;;2224338;64;20090;-43
2022/01/31 07:01:25;;;;;;;23.33;8.67;;;-2.00;99.90;;;;;;2224259;64;20570;-44
2022/01/31 07:03:53;;;;;;;26.87;9.53;;;-2.00;99.90;;;;;;2224292;64;20104;-43
2022/01/31 07:06:21;;;;;;;16.57;6.03;;;-1.90;99.90;;;;;;2224463;64;20096;-44
2022/01/31 07:08:48;;;;;;;18.97;7.10;;;-1.90;99.90;;;;;;2223470;64;20076;-43
2022/01/31 07:11:20;;;;;;;27.70;9.47;;;-1.90;99.90;;;;;;2216739;64;20084;-44
2022/01/31 07:13:48;;;;;;;27.97;9.03;;;-1.90;99.90;;;;;;2220520;64;20091;-43
2022/01/31 07:16:15;;;;;;;33.07;11.03;;;-1.80;99.90;;;;;;2220522;64;20172;-45
2022/01/31 07:18:43;;;;;;;28.37;9.90;;;-1.80;99.90;;;;;;2220460;64;20420;-43
2022/01/31 07:21:14;;;;;;;16.53;6.50;;;-1.80;99.90;;;;;;2220640;64;20085;-43
2022/01/31 07:24:06;;;;;;;18.13;6.67;;;-1.70;99.90;;;;;;2220633;64;20142;-44
2022/01/31 07:26:32;;;;;;;18.47;7.03;;;-1.70;99.90;;;;;;2221030;64;20089;-44
2022/01/31 07:28:59;;;;;;;23.63;8.60;;;-1.60;99.90;;;;;;2221083;64;20093;-45
2022/01/31 07:31:25;;;;;;;17.77;5.63;;;-1.50;99.90;;;;;;2221146;64;20103;-44
2022/01/31 07:33:52;;;;;;;22.13;7.87;;;-1.50;99.90;;;;;;2221199;64;20093;-44
2022/01/31 07:36:18;;;;;;;9.73;3.37;;;-1.50;99.90;;;;;;2221168;64;20583;-43
2022/01/31 07:38:45;;;;;;;14.83;5.13;;;-1.40;99.90;;;;;;2221149;64;20464;-41
2022/01/31 07:41:14;;;;;;;11.17;5.10;;;-1.40;99.90;;;;;;2217313;64;20551;-44
2022/01/31 07:43:43;;;;;;;9.73;3.40;;;-1.40;99.90;;;;;;2220997;64;20085;-43
2022/01/31 07:46:14;;;;;;;12.90;5.13;;;-1.40;99.90;;;;;;2217175;64;20111;-43
2022/01/31 07:48:40;;;;;;;25.80;9.07;;;-1.40;99.90;;;;;;2221026;64;20080;-43
2022/01/31 07:51:08;;;;;;;28.07;12.67;;;-1.40;99.90;;;;;;2221093;64;20099;-44
2022/01/31 07:53:38;;;;;;;19.60;7.17;;;-1.40;99.90;;;;;;2221062;64;20537;-43
2022/01/31 07:56:08;;;;;;;24.40;10.23;;;-1.40;99.90;;;;;;2220883;64;20084;-42
2022/01/31 07:58:35;;;;;;;19.73;7.17;;;-1.40;99.90;;;;;;2220948;64;20095;-43
2022/01/31 08:01:01;;;;;;;19.20;8.90;;;-1.30;99.90;;;;;;2221097;64;20104;-43
2022/01/31 08:03:28;;;;;;;18.70;7.77;;;-1.20;99.90;;;;;;2220942;64;20093;-43
2022/01/31 08:05:55;;;;;;;17.43;6.07;;;-1.20;99.90;;;;;;2221005;64;20437;-43
2022/01/31 08:08:21;;;;;;;20.53;8.10;;;-1.20;99.90;;;;;;2217136;64;20108;-44
2022/01/31 08:10:47;;;;;;;21.10;10.20;;;-1.10;99.90;;;;;;2224746;64;20108;-43
2022/01/31 08:13:14;;;;;;;18.87;8.10;;;-1.10;99.90;;;;;;2224836;64;20180;-44
2022/01/31 08:15:59;;;;;;;17.40;8.00;;;-1.10;99.90;;;;;;2224767;64;20111;-45
2022/01/31 08:18:26;;;;;;;23.95;9.43;;;-1.10;99.90;;;;;;2224807;64;20161;-43
2022/01/31 08:20:52;;;;;;;15.63;8.07;;;-1.00;99.90;;;;;;2224897;64;20575;-43
2022/01/31 08:23:19;;;;;;;12.23;4.80;;;-1.00;99.90;;;;;;2220996;64;20448;-43
2022/01/31 08:25:49;;;;;;;7.13;4.77;;;-1.00;99.90;;;;;;2221012;64;20088;-44
2022/01/31 08:28:16;;;;;;;11.90;5.33;;;-1.00;99.90;;;;;;2224752;64;20080;-43
2022/01/31 08:30:57;;;;;;;12.33;6.00;;;-1.00;99.90;;;;;;2224921;64;20092;-42
2022/01/31 08:33:44;;;;;;;17.63;8.93;;;-1.00;99.90;;;;;;2224946;64;20172;-44
2022/01/31 08:36:11;;;;;;;18.90;8.27;;;-0.90;99.90;;;;;;2224491;64;20157;-44
2022/01/31 08:38:39;;;;;;;18.43;8.23;;;-1.00;99.90;;;;;;2224814;64;20556;-41
2022/01/31 08:41:06;;;;;;;11.40;5.20;;;-0.90;99.90;;;;;;2220948;64;20126;-41
2022/01/31 08:43:36;;;;;;;11.80;5.33;;;-0.90;99.90;;;;;;2224638;64;20149;-44
2022/01/31 08:46:04;;;;;;;3.23;1.63;;;-0.80;99.90;;;;;;2224972;64;20544;-40
2022/01/31 08:48:30;;;;;;;7.13;3.63;;;-0.80;99.90;;;;;;2224474;64;20138;-40
2022/01/31 08:50:57;;;;;;;4.83;2.30;;;-0.80;99.90;;;;;;2224810;64;20088;-43
2022/01/31 08:53:24;;;;;;;8.43;4.07;;;-0.80;99.90;;;;;;2224606;64;20108;-42
2022/01/31 08:55:54;;;;;;;8.03;5.40;;;-0.70;99.90;;;;;;2220453;64;20100;-41
2022/01/31 08:58:22;;;;;;;3.87;1.70;;;-0.70;99.90;;;;;;2211144;64;20109;-41
2022/01/31 09:00:49;;;;;;;6.63;3.07;;;-0.70;99.90;;;;;;2211365;64;20097;-42
2022/01/31 09:05:42;;;;;;;10.53;4.47;;;-0.60;99.90;;;;;;2211412;64;20584;-41
2022/01/31 09:08:09;;;;;;;8.93;3.87;;;-0.60;99.90;;;;;;2211130;64;20168;-43
2022/01/31 09:10:35;;;;;;;3.90;1.63;;;-0.60;99.90;;;;;;2204505;64;20098;-41
2022/01/31 09:13:02;;;;;;;6.53;3.80;;;-0.60;99.90;;;;;;2207487;64;20101;-41
2022/01/31 09:15:28;;;;;;;7.17;4.07;;;-0.60;99.90;;;;;;2207325;64;20252;-42
2022/01/31 09:17:55;;;;;;;2.67;1.57;;;-0.50;99.90;;;;;;2207436;64;20078;-41
2022/01/31 09:20:22;;;;;;;5.97;2.77;;;-0.50;99.90;;;;;;2207419;64;20117;-42
2022/01/31 09:22:48;;;;;;;6.57;2.77;;;-0.50;99.90;;;;;;2207360;64;20090;-42
2022/01/31 09:25:15;;;;;;;13.87;7.27;;;-0.50;99.90;;;;;;2207466;64;20580;-42
2022/01/31 09:27:42;;;;;;;6.63;3.03;;;-0.50;99.90;;;;;;2204267;64;20101;-41
2022/01/31 09:30:09;;;;;;;6.00;3.37;;;-0.50;99.90;;;;;;2207365;64;20086;-40
2022/01/31 09:32:36;;;;;;;8.20;2.83;;;-0.60;99.90;;;;;;2204338;64;20112;-41
2022/01/31 09:35:03;;;;;;;9.67;4.23;;;-0.50;99.90;;;;;;2209112;64;20581;-42
2022/01/31 09:37:29;;;;;;;10.40;4.53;;;-0.50;99.90;;;;;;2220660;64;20437;-42
2022/01/31 09:40:03;;;;;;;6.87;2.87;;;-0.50;99.90;;;;;;2220705;64;20107;-42
2022/01/31 09:42:41;;;;;;;6.73;4.40;;;-0.50;99.90;;;;;;2220816;64;20100;-41
2022/01/31 09:45:21;;;;;;;6.00;3.40;;;-0.50;99.90;;;;;;2217088;64;20125;-41
2022/01/31 09:50:23;;;;;;;;;;;-0.60;99.90;;;;;;2220818;64;20165;-40
2022/01/31 09:52:50;;;;;;;5.33;2.53;;;-0.60;99.90;;;;;;2220353;64;20386;-42
2022/01/31 09:55:16;;;;;;;4.47;2.20;;;-0.60;99.90;;;;;;2213588;64;20111;-41
2022/01/31 09:57:43;;;;;;;3.03;1.73;;;-0.60;99.90;;;;;;2220409;64;20173;-40
2022/01/31 10:00:09;;;;;;;5.80;2.70;;;-0.60;99.90;;;;;;2220632;64;20112;-38
2022/01/31 10:02:36;;;;;;;6.80;3.50;;;-0.60;99.90;;;;;;2220593;64;20170;-41
2022/01/31 10:05:03;;;;;;;3.83;1.77;;;-0.60;99.90;;;;;;2220449;64;20124;-40
2022/01/31 10:07:49;;;;;;;3.23;2.07;;;-0.60;99.90;;;;;;2220427;64;20120;-37
2022/01/31 10:10:22;;;;;;;7.03;3.07;;;-0.60;99.90;;;;;;2223836;64;20114;-38
2022/01/31 10:18:08;;;;;;;2.83;1.48;;;-0.70;99.90;;;;;;2224504;64;20084;-36
2022/01/31 10:20:35;;;;;;;5.40;2.87;;;-0.70;99.90;;;;;;2224226;64;20115;-37
2022/01/31 10:23:09;;;;;;;5.77;2.00;;;-0.70;99.90;;;;;;2220514;64;20514;-41
2022/01/31 10:25:35;;;;;;;3.93;1.73;;;-0.60;99.90;;;;;;2224354;64;20087;-37
2022/01/31 10:28:02;;;;;;;4.10;2.60;;;-0.70;99.90;;;;;;2220714;64;20172;-36
2022/01/31 10:30:29;;;;;;;4.83;2.53;;;-0.70;99.90;;;;;;2217313;64;20084;-36
2022/01/31 10:32:57;;;;;;;4.43;2.17;;;-0.70;99.90;;;;;;2224321;64;20092;-36
2022/01/31 10:35:31;;;;;;;3.90;2.13;;;-0.60;99.90;;;;;;2224209;64;20607;-36
2022/01/31 10:38:07;;;;;;;2.80;2.10;;;-0.60;99.90;;;;;;2224610;64;20169;-37
2022/01/31 10:46:05;;;;;;;2.87;1.67;;;-0.60;99.90;;;;;;2224478;64;20363;-36
2022/01/31 10:54:41;;;;;;;2.97;1.42;;;-0.50;99.90;;;;;;2224304;64;20088;-37
2022/01/31 10:56:47;;;;;;;3.60;1.57;;;-0.50;99.90;;;;;;2221497;64;20124;-39
2022/01/31 10:59:14;;;;;;;2.67;1.17;;;-0.50;99.90;;;;;;2219037;64;20089;-39
2022/01/31 11:01:42;;;;;;;3.57;1.00;;;-0.60;99.90;;;;;;2219409;64;20109;-38
2022/01/31 11:04:14;;;;;;;3.83;2.13;;;-0.50;99.90;;;;;;2216323;64;20112;-37
2022/01/31 11:06:42;;;;;;;3.23;2.03;;;-0.40;99.90;;;;;;2219374;64;20155;-38
2022/01/31 11:09:11;;;;;;;2.37;1.27;;;-0.50;99.90;;;;;;2210241;64;20105;-41
2022/01/31 11:11:43;;;;;;;2.93;2.17;;;-0.50;99.90;;;;;;2204585;64;20098;-40
2022/01/31 11:14:10;;;;;;;2.60;1.20;;;-0.60;99.90;;;;;;2207754;64;20127;-42
2022/01/31 11:16:38;;;;;;;3.90;0.83;;;-0.60;99.90;;;;;;2207750;64;20719;-42
2022/01/31 11:19:07;;;;;;;3.93;1.90;;;-0.60;99.90;;;;;;2207919;64;20097;-41
2022/01/31 11:21:36;;;;;;;5.50;2.13;;;-0.60;99.90;;;;;;2208056;64;20090;-42
2022/01/31 11:24:05;;;;;;;1.90;1.00;;;-0.80;99.90;;;;;;2207702;64;20098;-41
2022/01/31 11:26:39;;;;;;;2.00;1.27;;;-0.70;99.90;;;;;;2208068;64;20734;-41
2022/01/31 11:29:08;;;;;;;1.50;1.10;;;-0.90;99.90;;;;;;2207722;64;20236;-41
2022/01/31 11:31:36;;;;;;;1.80;0.90;;;-0.80;99.90;;;;;;2208007;64;20172;-41
2022/01/31 11:34:04;;;;;;;2.33;1.23;;;-0.80;99.90;;;;;;2207736;64;20087;-40
2022/01/31 11:36:31;;;;;;;3.90;1.30;;;-0.90;99.90;;;;;;2209167;64;20175;-43
2022/01/31 11:38:58;;;;;;;2.37;1.57;;;-0.90;99.90;;;;;;2208354;64;20097;-42
2022/01/31 11:41:24;;;;;;;3.10;1.23;;;-0.90;99.90;;;;;;2216838;64;20089;-39
2022/01/31 11:43:59;;;;;;;4.30;1.00;;;-0.90;99.90;;;;;;2216930;64;20120;-39
2022/01/31 11:46:25;;;;;;;1.65;0.63;;;-0.90;99.90;;;;;;2221009;64;20482;-40
2022/01/31 11:48:52;;;;;;;4.70;1.43;;;-0.90;99.90;;;;;;2217018;64;20100;-40
2022/01/31 11:51:20;;;;;;;1.73;0.97;;;-0.90;99.90;;;;;;2217246;64;20110;-40
2022/01/31 11:53:46;;;;;;;4.50;1.77;;;-1.00;99.90;;;;;;2220854;64;20107;-40
2022/01/31 11:56:21;;;;;;;2.47;1.50;;;-1.00;99.90;;;;;;2220843;64;20088;-41
2022/01/31 11:58:49;;;;;;;2.50;1.38;;;-0.90;99.90;;;;;;2217120;64;20080;-39
2022/01/31 12:01:16;;;;;;;3.60;1.20;;;-1.00;99.90;;;;;;2220810;64;20188;-39
2022/01/31 12:03:51;;;;;;;1.23;0.83;;;-1.00;99.90;;;;;;2220734;64;20080;-38
2022/01/31 12:06:21;;;;;;;1.85;1.23;;;-1.00;99.90;;;;;;2220893;64;20108;-40
2022/01/31 12:08:49;;;;;;;2.90;1.47;;;-1.00;99.90;;;;;;2221749;64;20560;-40
2022/01/31 12:11:23;;;;;;;3.20;2.00;;;-1.00;99.90;;;;;;2224817;64;20104;-40
2022/01/31 12:13:52;;;;;;;1.93;0.80;;;-1.00;99.90;;;;;;2224702;64;20096;-39
2022/01/31 12:16:45;;;;;;;3.03;1.83;;;-0.90;99.90;;;;;;2224754;64;20174;-39
2022/01/31 12:19:47;;;;;;;2.00;1.00;;;-1.00;99.90;;;;;;2224722;64;20115;-39
2022/01/31 12:22:52;;;;;;;2.03;1.00;;;-1.00;99.90;;;;;;2224574;64;20076;-39
2022/01/31 12:25:29;;;;;;;1.07;0.63;;;-1.00;99.90;;;;;;2224738;64;20616;-39
2022/01/31 12:27:57;;;;;;;2.10;1.13;;;-1.00;99.90;;;;;;2224720;64;20091;-40
2022/01/31 12:30:36;;;;;;;1.23;1.00;;;-1.00;99.90;;;;;;2224690;64;20621;-39
2022/01/31 12:33:03;;;;;;;2.17;1.27;;;-1.00;99.90;;;;;;2224555;64;20165;-39
2022/01/31 12:35:34;;;;;;;1.87;1.20;;;-1.00;99.90;;;;;;2224759;64;20520;-40
2022/01/31 12:38:01;;;;;;;1.87;1.30;;;-1.00;99.90;;;;;;2224470;64;20134;-39
2022/01/31 12:40:33;;;;;;;3.07;1.33;;;-1.00;99.90;;;;;;2224961;64;20088;-40
2022/01/31 12:45:27;;;;;;;2.83;1.30;;;-1.10;99.90;;;;;;2224817;64;20096;-39
2022/01/31 12:48:25;;;;;;;1.23;0.60;;;-1.20;99.90;;;;;;2224413;64;20100;-39
2022/01/31 12:50:52;;;;;;;2.73;0.73;;;-1.10;99.90;;;;;;2223272;64;20092;-40
2022/01/31 12:53:42;;;;;;;1.17;0.93;;;-1.10;99.90;;;;;;2220699;64;20080;-38
2022/01/31 12:56:24;;;;;;;2.07;0.90;;;-1.10;99.90;;;;;;2224428;64;20146;-40
2022/01/31 12:58:55;;;;;;;1.73;1.40;;;-1.20;99.90;;;;;;2224595;64;20123;-39
2022/01/31 13:01:27;;;;;;;1.50;0.97;;;-1.20;99.90;;;;;;2224561;64;20126;-41
2022/01/31 13:03:55;;;;;;;1.67;1.07;;;-1.20;99.90;;;;;;2224607;64;20099;-39
2022/01/31 13:06:32;;;;;;;2.43;1.43;;;-1.20;99.90;;;;;;2220828;64;20556;-40
2022/01/31 13:09:04;;;;;;;1.70;1.10;;;-1.30;99.90;;;;;;2223304;64;20556;-39